Time;durP1;ratioP1;P1;durP2;ratioP2;P2;SDS_P1;SDS_P2;PMS_P1;PMS_P2;Temp;Humidity;BMP_temperature;BMP_pressure;BME280_temperature;BME280_humidity;BME280_pressure;Samples;Min_cycle;Max_cycle;Signal;HPM_P1;HPM_P2
2023/08/21 00:00:21;;;;;;;4.40;2.28;;;16.50;99.90;;;;;;5052273;28;20449;-50
2023/08/21 00:02:46;;;;;;;6.68;2.33;;;16.50;99.90;;;;;;5059270;28;20036;-53
2023/08/21 00:05:12;;;;;;;5.65;2.33;;;16.40;99.90;;;;;;5059860;28;20036;-53
2023/08/21 00:07:38;;;;;;;6.65;2.58;;;16.40;99.90;;;;;;5028241;28;20407;-54
2023/08/21 00:10:04;;;;;;;5.05;2.15;;;16.40;99.90;;;;;;5045081;28;20075;-55
2023/08/21 00:12:30;;;;;;;3.72;2.30;;;16.30;99.90;;;;;;5033965;28;20091;-53
2023/08/21 00:14:57;;;;;;;4.57;2.28;;;16.20;99.90;;;;;;5051810;28;20064;-53
2023/08/21 00:17:22;;;;;;;6.38;2.42;;;16.20;99.90;;;;;;5053521;28;20259;-50
2023/08/21 00:19:48;;;;;;;4.40;2.38;;;16.20;99.90;;;;;;5034687;28;20094;-51
2023/08/21 00:22:14;;;;;;;7.32;2.78;;;16.20;99.90;;;;;;5057328;28;20449;-54
2023/08/21 00:24:39;;;;;;;6.35;2.42;;;16.10;99.90;;;;;;5049934;28;20576;-54
2023/08/21 00:27:05;;;;;;;5.43;2.47;;;16.10;99.90;;;;;;5045182;28;20098;-51
2023/08/21 00:29:33;;;;;;;6.15;3.15;;;16.10;99.90;;;;;;5057096;28;20067;-56
2023/08/21 00:31:59;;;;;;;7.03;2.38;;;16.10;99.90;;;;;;5050310;28;20087;-53
2023/08/21 00:34:25;;;;;;;5.32;2.55;;;16.10;99.90;;;;;;5047431;28;20419;-52
2023/08/21 00:36:50;;;;;;;4.45;2.00;;;16.00;99.90;;;;;;5030096;28;20134;-53
2023/08/21 00:39:16;;;;;;;4.47;2.67;;;16.00;99.90;;;;;;5034353;28;20036;-54
2023/08/21 00:41:42;;;;;;;4.07;1.50;;;16.00;99.90;;;;;;5017326;28;20117;-51
2023/08/21 00:44:11;;;;;;;3.47;2.40;;;16.00;99.90;;;;;;5064971;28;20404;-55
2023/08/21 00:46:36;;;;;;;3.33;2.00;;;15.90;99.90;;;;;;5051488;28;20488;-53
2023/08/21 00:49:02;;;;;;;5.03;2.30;;;15.90;99.90;;;;;;5031950;28;20123;-51
2023/08/21 00:51:28;;;;;;;5.68;2.97;;;15.90;99.90;;;;;;5029994;28;20135;-55
2023/08/21 00:53:54;;;;;;;4.45;2.30;;;15.80;99.90;;;;;;5070044;28;20403;-55
2023/08/21 00:56:21;;;;;;;6.22;2.75;;;15.80;99.90;;;;;;5058690;28;20140;-52
2023/08/21 00:58:47;;;;;;;6.47;2.63;;;15.70;99.90;;;;;;5074403;28;20313;-52
2023/08/21 01:01:15;;;;;;;6.38;3.38;;;15.80;99.90;;;;;;5070952;28;20055;-54
2023/08/21 01:03:41;;;;;;;5.55;3.25;;;15.70;99.90;;;;;;5051582;28;20052;-51
2023/08/21 01:06:07;;;;;;;7.20;3.83;;;15.70;99.90;;;;;;5033194;28;20402;-52
2023/08/21 01:08:50;;;;;;;7.50;3.88;;;15.60;99.90;;;;;;5048781;28;20528;-53
2023/08/21 01:11:38;;;;;;;7.65;3.90;;;15.60;99.90;;;;;;5048889;28;20403;-52
2023/08/21 01:14:37;;;;;;;8.57;4.60;;;15.60;99.90;;;;;;5046791;28;20052;-52
2023/08/21 01:17:07;;;;;;;7.65;3.72;;;15.60;99.90;;;;;;5063151;28;20497;-54
2023/08/21 01:19:48;;;;;;;7.25;4.70;;;15.50;99.90;;;;;;5039410;28;20032;-54
2023/08/21 01:22:14;;;;;;;5.50;4.07;;;15.50;99.90;;;;;;5064437;28;20380;-54
2023/08/21 01:24:42;;;;;;;5.35;4.15;;;15.50;99.90;;;;;;5048700;28;20066;-53
2023/08/21 01:27:10;;;;;;;5.18;3.35;;;15.50;99.90;;;;;;5045740;28;20048;-53
2023/08/21 01:29:36;;;;;;;6.55;3.50;;;15.50;99.90;;;;;;5054600;28;20521;-51
2023/08/21 01:32:13;;;;;;;6.32;3.53;;;15.50;99.90;;;;;;5048342;28;20128;-54
2023/08/21 01:34:40;;;;;;;5.55;3.30;;;15.50;99.90;;;;;;5046911;28;20056;-54
2023/08/21 01:37:07;;;;;;;4.35;2.60;;;15.50;99.90;;;;;;5049619;28;20056;-52
2023/08/21 01:39:46;;;;;;;5.00;3.03;;;15.50;99.90;;;;;;5034744;28;20410;-50
2023/08/21 01:42:11;;;;;;;4.75;2.90;;;15.50;99.90;;;;;;5038516;28;20084;-51
2023/08/21 01:44:37;;;;;;;6.93;3.33;;;15.50;99.90;;;;;;5050100;28;20458;-50
2023/08/21 01:47:03;;;;;;;6.65;3.40;;;15.50;99.90;;;;;;5051014;28;20453;-53
2023/08/21 01:49:31;;;;;;;6.18;3.50;;;15.50;99.90;;;;;;5064961;28;20349;-55
2023/08/21 01:51:57;;;;;;;6.53;3.20;;;15.40;99.90;;;;;;5063424;28;20514;-54
2023/08/21 01:54:23;;;;;;;7.45;3.80;;;15.30;99.90;;;;;;5061647;28;20131;-52
2023/08/21 01:56:48;;;;;;;9.02;3.90;;;15.30;99.90;;;;;;5049137;28;20037;-52
2023/08/21 01:59:17;;;;;;;7.30;3.90;;;15.30;99.90;;;;;;5065946;28;20127;-53
2023/08/21 02:01:42;;;;;;;7.40;4.10;;;15.30;99.90;;;;;;5058943;28;21260;-51
2023/08/21 02:04:08;;;;;;;6.15;3.80;;;15.30;99.90;;;;;;5049912;28;20044;-52
2023/08/21 02:06:34;;;;;;;4.57;3.15;;;15.30;99.90;;;;;;5059473;28;20419;-53
2023/08/21 02:08:59;;;;;;;7.88;4.63;;;15.30;99.90;;;;;;5057628;28;20132;-53
2023/08/21 02:11:25;;;;;;;3.97;2.97;;;15.30;99.90;;;;;;5057786;28;20040;-53
2023/08/21 02:13:51;;;;;;;6.43;3.47;;;15.20;99.90;;;;;;5048820;28;20040;-54
2023/08/21 02:16:16;;;;;;;5.55;4.00;;;15.20;99.90;;;;;;5073043;28;20040;-50
2023/08/21 02:18:42;;;;;;;5.50;3.67;;;15.20;99.90;;;;;;5062321;28;20048;-54
2023/08/21 02:21:08;;;;;;;4.28;2.85;;;15.10;99.90;;;;;;5072013;28;20177;-53
2023/08/21 02:23:34;;;;;;;4.13;2.80;;;15.10;99.90;;;;;;5055599;28;20754;-53
2023/08/21 02:25:59;;;;;;;6.45;3.45;;;15.10;99.90;;;;;;5048943;28;20131;-51
2023/08/21 02:28:25;;;;;;;4.68;3.22;;;15.00;99.90;;;;;;5064098;28;20361;-50
2023/08/21 02:30:51;;;;;;;3.75;3.33;;;15.00;99.90;;;;;;5067585;28;20079;-50
2023/08/21 02:33:16;;;;;;;7.75;3.97;;;15.00;99.90;;;;;;5044737;28;20044;-50
2023/08/21 02:35:42;;;;;;;5.82;3.63;;;15.00;99.90;;;;;;5048594;28;20045;-53
2023/08/21 02:38:08;;;;;;;7.22;4.25;;;15.00;99.90;;;;;;5060782;28;20040;-56
2023/08/21 02:40:33;;;;;;;6.97;4.10;;;15.00;99.90;;;;;;5048184;28;20037;-51
2023/08/21 02:42:59;;;;;;;6.63;3.83;;;15.00;99.90;;;;;;5044800;28;20048;-51
2023/08/21 02:45:25;;;;;;;5.20;3.78;;;14.90;99.90;;;;;;5065361;28;20126;-51
2023/08/21 02:47:50;;;;;;;3.55;2.85;;;14.90;99.90;;;;;;5046122;28;20044;-53
2023/08/21 02:50:16;;;;;;;4.47;3.17;;;14.90;99.90;;;;;;5038093;28;20113;-52
2023/08/21 02:52:42;;;;;;;4.72;3.35;;;14.90;99.90;;;;;;5057520;28;20554;-52
2023/08/21 02:55:08;;;;;;;4.85;2.80;;;14.80;99.90;;;;;;5028386;28;20052;-54
2023/08/21 02:57:34;;;;;;;6.07;3.50;;;14.80;99.90;;;;;;5024349;28;21699;-53
2023/08/21 03:00:00;;;;;;;3.58;2.22;;;14.80;99.90;;;;;;5052764;28;20033;-55
2023/08/21 03:02:25;;;;;;;3.50;2.95;;;14.80;99.90;;;;;;5021481;28;20403;-52
2023/08/21 03:04:51;;;;;;;4.40;2.67;;;14.80;99.90;;;;;;5043163;28;20041;-55
2023/08/21 03:07:18;;;;;;;4.00;2.95;;;14.70;99.90;;;;;;5038738;28;20136;-54
2023/08/21 03:09:47;;;;;;;4.82;2.92;;;14.70;99.90;;;;;;5021580;28;20755;-54
2023/08/21 03:12:13;;;;;;;4.00;2.88;;;14.70;99.90;;;;;;5038388;28;20036;-53
2023/08/21 03:14:39;;;;;;;5.72;2.72;;;14.70;99.90;;;;;;5037546;28;20051;-53
2023/08/21 03:17:07;;;;;;;3.05;2.10;;;14.70;99.90;;;;;;5021496;28;20455;-54
2023/08/21 03:19:33;;;;;;;4.57;2.70;;;14.70;99.90;;;;;;5036824;28;21138;-53
2023/08/21 03:21:59;;;;;;;4.50;2.42;;;14.80;99.90;;;;;;5055647;28;20036;-53
2023/08/21 03:24:25;;;;;;;3.75;2.40;;;14.70;99.90;;;;;;5051413;28;21774;-53
2023/08/21 03:26:50;;;;;;;4.38;2.40;;;14.80;99.90;;;;;;5053242;28;20119;-54
2023/08/21 03:29:16;;;;;;;4.13;2.53;;;14.80;99.90;;;;;;5036347;28;20040;-53
2023/08/21 03:31:42;;;;;;;4.53;2.50;;;14.70;99.90;;;;;;5023145;28;20048;-53
2023/08/21 03:34:08;;;;;;;4.07;2.60;;;14.70;99.90;;;;;;5032281;28;20049;-53
2023/08/21 03:36:36;;;;;;;9.02;3.10;;;14.80;99.90;;;;;;5055197;28;20510;-53
2023/08/21 03:39:03;;;;;;;5.90;2.72;;;14.80;99.90;;;;;;5054674;28;20044;-56
2023/08/21 03:41:29;;;;;;;4.05;2.50;;;14.80;99.90;;;;;;5040767;28;20044;-54
2023/08/21 03:43:55;;;;;;;3.78;2.63;;;14.80;99.90;;;;;;5048485;28;20114;-55
2023/08/21 03:46:20;;;;;;;4.57;3.35;;;14.90;99.90;;;;;;5049898;28;20135;-53
2023/08/21 03:48:46;;;;;;;3.22;2.60;;;14.90;99.90;;;;;;5022627;28;20139;-54
2023/08/21 03:51:12;;;;;;;4.18;2.72;;;14.80;99.90;;;;;;5063833;28;20056;-54
2023/08/21 03:53:38;;;;;;;4.22;2.83;;;14.80;99.90;;;;;;5058920;28;20072;-54
2023/08/21 03:56:04;;;;;;;3.60;2.80;;;14.80;99.90;;;;;;5049942;28;20518;-52
2023/08/21 03:58:30;;;;;;;3.55;2.83;;;14.90;99.90;;;;;;5055158;28;20036;-51
2023/08/21 04:00:55;;;;;;;3.83;2.42;;;14.90;99.90;;;;;;5051660;28;20384;-54
2023/08/21 04:03:21;;;;;;;5.10;3.20;;;14.90;99.90;;;;;;5032064;28;20052;-54
2023/08/21 04:05:47;;;;;;;4.47;3.35;;;14.80;99.90;;;;;;5072492;28;20035;-53
2023/08/21 04:08:13;;;;;;;4.72;3.17;;;14.80;99.90;;;;;;5049973;28;20047;-50
2023/08/21 04:10:39;;;;;;;4.05;2.88;;;14.80;99.90;;;;;;5049552;28;20298;-51
2023/08/21 04:13:05;;;;;;;4.15;3.22;;;14.80;99.90;;;;;;5053056;28;20044;-55
2023/08/21 04:15:33;;;;;;;3.67;2.58;;;14.80;99.90;;;;;;5052547;28;20055;-52
2023/08/21 04:17:59;;;;;;;4.40;3.10;;;14.70;99.90;;;;;;5047304;28;20499;-53
2023/08/21 04:20:25;;;;;;;5.32;3.08;;;14.70;99.90;;;;;;5038157;28;20082;-53
2023/08/21 04:22:51;;;;;;;4.03;3.35;;;14.70;99.90;;;;;;5071861;28;20043;-55
2023/08/21 04:25:16;;;;;;;4.53;2.70;;;14.70;99.90;;;;;;5071352;28;20059;-50
2023/08/21 04:27:42;;;;;;;2.67;2.30;;;14.70;99.90;;;;;;5069728;28;20525;-51
2023/08/21 04:30:09;;;;;;;4.40;3.45;;;14.70;99.90;;;;;;5076289;28;20415;-51
2023/08/21 04:32:35;;;;;;;4.47;2.67;;;14.70;99.90;;;;;;5051330;28;20131;-52
2023/08/21 04:35:01;;;;;;;4.35;2.70;;;14.70;99.90;;;;;;5070491;28;20122;-50
2023/08/21 04:37:27;;;;;;;5.63;3.40;;;14.60;99.90;;;;;;5045027;28;20044;-50
2023/08/21 04:39:53;;;;;;;4.15;3.33;;;14.60;99.90;;;;;;5053084;28;20344;-51
2023/08/21 04:42:20;;;;;;;2.92;2.63;;;14.60;99.90;;;;;;5050024;28;20075;-50
2023/08/21 04:44:45;;;;;;;3.50;2.60;;;14.60;99.90;;;;;;5070616;28;20040;-54
2023/08/21 04:47:23;;;;;;;4.40;3.08;;;14.50;99.90;;;;;;5051250;28;20048;-55
2023/08/21 04:49:52;;;;;;;4.30;2.75;;;14.60;99.90;;;;;;5028239;28;20150;-52
2023/08/21 04:52:18;;;;;;;3.15;2.35;;;14.60;99.90;;;;;;5060438;28;20447;-54
2023/08/21 04:54:44;;;;;;;4.65;3.22;;;14.60;99.90;;;;;;5052803;28;20044;-50
2023/08/21 04:57:10;;;;;;;3.95;3.00;;;14.60;99.90;;;;;;5052812;28;20392;-50
2023/08/21 04:59:36;;;;;;;5.45;3.20;;;14.60;99.90;;;;;;5036052;28;20047;-55
2023/08/21 05:02:02;;;;;;;8.50;3.67;;;14.60;99.90;;;;;;5049563;28;20510;-51
2023/08/21 05:04:28;;;;;;;7.13;3.85;;;14.60;99.90;;;;;;5051739;28;20036;-54
2023/08/21 05:06:53;;;;;;;4.35;3.38;;;14.60;99.90;;;;;;5052722;28;20040;-50
2023/08/21 05:09:19;;;;;;;5.30;3.40;;;14.60;99.90;;;;;;5044396;28;20048;-55
2023/08/21 05:11:45;;;;;;;5.70;3.63;;;14.70;99.90;;;;;;5049881;28;20123;-50
2023/08/21 05:14:10;;;;;;;4.93;3.50;;;14.70;99.90;;;;;;5046798;28;20034;-53
2023/08/21 05:16:36;;;;;;;3.65;2.58;;;14.70;99.90;;;;;;5071725;28;20086;-53
2023/08/21 05:19:02;;;;;;;4.20;2.72;;;14.70;99.90;;;;;;5065453;28;20399;-53
2023/08/21 05:21:28;;;;;;;3.88;2.80;;;14.70;99.90;;;;;;5072418;28;20028;-54
2023/08/21 05:23:53;;;;;;;3.78;3.00;;;14.80;99.90;;;;;;5069580;28;20048;-49
2023/08/21 05:26:19;;;;;;;5.13;2.83;;;14.80;99.90;;;;;;5050817;28;20055;-52
2023/08/21 05:28:45;;;;;;;4.05;3.03;;;14.80;99.90;;;;;;5032162;28;20063;-49
2023/08/21 05:31:11;;;;;;;5.97;3.03;;;14.90;99.90;;;;;;5045037;28;20040;-51
2023/08/21 05:33:37;;;;;;;3.95;2.60;;;14.90;99.90;;;;;;5073610;28;20040;-55
2023/08/21 05:36:03;;;;;;;5.07;3.45;;;14.90;99.90;;;;;;5041540;28;20102;-53
2023/08/21 05:38:29;;;;;;;8.50;3.78;;;15.00;99.90;;;;;;5051423;28;20120;-55
2023/08/21 05:40:55;;;;;;;7.05;3.65;;;15.10;99.90;;;;;;5047549;28;20033;-54
2023/08/21 05:43:20;;;;;;;4.85;2.90;;;15.20;99.90;;;;;;5055854;28;20044;-55
2023/08/21 05:45:46;;;;;;;7.07;3.65;;;15.20;99.90;;;;;;5053870;28;20094;-52
2023/08/21 05:48:12;;;;;;;5.93;3.67;;;15.30;99.90;;;;;;5073132;28;20515;-53
2023/08/21 05:50:41;;;;;;;6.90;4.28;;;15.30;99.90;;;;;;5066097;28;20087;-50
2023/08/21 05:53:07;;;;;;;6.88;4.38;;;15.40;99.90;;;;;;5048193;28;20432;-51
2023/08/21 05:55:32;;;;;;;9.48;4.80;;;15.50;99.90;;;;;;5045078;28;20091;-49
2023/08/21 05:57:58;;;;;;;8.38;5.47;;;15.50;99.90;;;;;;5049163;28;20075;-49
2023/08/21 06:00:24;;;;;;;6.72;4.40;;;15.60;99.90;;;;;;5044001;28;20055;-53
2023/08/21 06:02:50;;;;;;;11.85;5.63;;;15.70;99.90;;;;;;5052026;28;20313;-52
2023/08/21 06:05:16;;;;;;;9.38;4.55;;;15.80;99.90;;;;;;5071777;28;20506;-54
2023/08/21 06:07:42;;;;;;;11.95;4.85;;;15.90;99.90;;;;;;5058609;28;20473;-52
2023/08/21 06:10:11;;;;;;;10.23;5.40;;;16.00;99.90;;;;;;5068624;28;20410;-53
2023/08/21 06:12:37;;;;;;;9.32;4.88;;;16.10;99.90;;;;;;5044797;28;20049;-51
2023/08/21 06:15:03;;;;;;;9.38;4.90;;;16.20;99.90;;;;;;5069193;28;20422;-52
2023/08/21 06:17:29;;;;;;;11.90;4.68;;;16.30;99.90;;;;;;5045743;28;20083;-53
2023/08/21 06:19:55;;;;;;;8.18;4.03;;;16.40;99.90;;;;;;5048971;28;20268;-53
2023/08/21 06:22:21;;;;;;;8.80;4.95;;;16.50;99.90;;;;;;5066625;28;20040;-52
2023/08/21 06:24:47;;;;;;;8.13;4.40;;;16.60;99.90;;;;;;5052164;28;20041;-54
2023/08/21 06:27:12;;;;;;;10.48;5.15;;;16.60;99.90;;;;;;5047763;28;20540;-54
2023/08/21 06:29:40;;;;;;;9.38;4.72;;;16.70;99.90;;;;;;5035756;28;20421;-54
2023/08/21 06:32:06;;;;;;;12.07;5.20;;;16.80;99.90;;;;;;5052370;28;20052;-55
2023/08/21 06:34:31;;;;;;;12.40;5.68;;;17.00;99.90;;;;;;5033268;28;20048;-52
2023/08/21 06:36:57;;;;;;;14.32;5.53;;;17.00;99.90;;;;;;5028166;28;20198;-53
2023/08/21 06:39:23;;;;;;;11.57;5.38;;;17.20;99.90;;;;;;5050820;28;20036;-53
2023/08/21 06:42:20;;;;;;;7.57;4.10;;;17.30;99.90;;;;;;5048281;28;20044;-50
2023/08/21 06:44:45;;;;;;;9.43;4.85;;;17.40;99.90;;;;;;5051810;28;20490;-55
2023/08/21 06:47:11;;;;;;;8.43;4.75;;;17.50;99.90;;;;;;5067049;28;20051;-56
2023/08/21 06:49:37;;;;;;;8.82;4.53;;;17.60;99.90;;;;;;5059690;28;20458;-53
2023/08/21 06:52:03;;;;;;;12.93;4.65;;;17.70;99.90;;;;;;5048006;28;20571;-53
2023/08/21 06:54:29;;;;;;;7.68;4.40;;;17.80;99.90;;;;;;5051207;28;20538;-49
2023/08/21 06:56:58;;;;;;;9.98;4.32;;;17.90;99.90;;;;;;5049843;28;20079;-55
2023/08/21 06:59:24;;;;;;;10.05;4.43;;;18.00;99.90;;;;;;5039735;28;20048;-55
2023/08/21 07:01:51;;;;;;;6.90;3.92;;;18.10;99.90;;;;;;5055518;28;20043;-53
2023/08/21 07:04:16;;;;;;;10.73;4.90;;;18.20;99.90;;;;;;5037520;28;20118;-54
2023/08/21 07:06:42;;;;;;;11.07;4.38;;;18.30;99.90;;;;;;5000784;28;21020;-50
2023/08/21 07:09:08;;;;;;;6.82;3.92;;;18.40;99.90;;;;;;5033578;28;20882;-56
2023/08/21 07:11:34;;;;;;;6.65;4.25;;;18.50;99.90;;;;;;5052943;28;20056;-54
2023/08/21 07:14:03;;;;;;;8.70;4.18;;;18.60;99.90;;;;;;5033203;28;20424;-52
2023/08/21 07:16:32;;;;;;;9.45;4.28;;;18.80;99.90;;;;;;5050133;28;20554;-54
2023/08/21 07:18:57;;;;;;;7.40;4.03;;;18.90;99.90;;;;;;5036184;28;20191;-53
2023/08/21 07:21:23;;;;;;;6.38;3.75;;;19.00;99.90;;;;;;5019120;28;20604;-52
2023/08/21 07:23:49;;;;;;;9.43;3.90;;;19.10;99.90;;;;;;5033613;28;20067;-58
2023/08/21 07:26:15;;;;;;;7.72;3.63;;;19.20;99.90;;;;;;5034847;28;20044;-55
2023/08/21 07:28:40;;;;;;;10.60;4.35;;;19.30;99.90;;;;;;5049937;28;20032;-50
2023/08/21 07:31:06;;;;;;;8.07;3.63;;;19.40;99.90;;;;;;5037695;28;20434;-53
2023/08/21 07:33:32;;;;;;;9.00;4.00;;;19.50;99.90;;;;;;5036295;28;20091;-52
2023/08/21 07:36:03;;;;;;;11.05;4.60;;;19.70;99.90;;;;;;5030450;28;20068;-56
2023/08/21 07:38:29;;;;;;;10.15;4.00;;;19.90;99.90;;;;;;5048841;28;20052;-53
2023/08/21 07:41:11;;;;;;;10.77;3.95;;;20.10;99.90;;;;;;5020506;28;20158;-54
2023/08/21 07:43:40;;;;;;;8.88;3.65;;;20.20;99.90;;;;;;5051088;28;20048;-53
2023/08/21 07:46:06;;;;;;;9.20;4.65;;;20.30;99.90;;;;;;5034694;28;20039;-54
2023/08/21 07:48:33;;;;;;;6.85;3.92;;;20.40;99.90;;;;;;5049369;28;20033;-55
2023/08/21 07:50:59;;;;;;;7.82;3.45;;;20.50;99.90;;;;;;5034387;28;20098;-54
2023/08/21 07:53:27;;;;;;;8.00;3.85;;;20.60;99.90;;;;;;5032876;28;20044;-55
2023/08/21 07:55:52;;;;;;;10.60;3.60;;;20.60;99.90;;;;;;5033642;28;20517;-54
2023/08/21 07:58:19;;;;;;;8.15;3.95;;;20.70;99.90;;;;;;5034853;28;20628;-55
2023/08/21 08:00:45;;;;;;;11.18;4.47;;;20.80;99.90;;;;;;5038673;28;20064;-53
2023/08/21 08:03:11;;;;;;;9.45;4.10;;;20.90;99.90;;;;;;5052529;28;20036;-52
2023/08/21 08:05:38;;;;;;;10.02;4.53;;;20.90;99.90;;;;;;5034693;28;20133;-54
2023/08/21 08:08:04;;;;;;;7.65;4.32;;;21.10;99.90;;;;;;5048824;28;20818;-55
2023/08/21 08:10:30;;;;;;;8.00;3.65;;;21.10;99.90;;;;;;5033768;28;20036;-51
2023/08/21 08:12:56;;;;;;;10.02;4.35;;;21.30;99.90;;;;;;5044623;28;20043;-56
2023/08/21 08:15:24;;;;;;;9.70;4.32;;;21.40;99.90;;;;;;5033065;28;20040;-55
2023/08/21 08:17:52;;;;;;;10.30;3.95;;;21.50;99.90;;;;;;5033684;28;20137;-55
2023/08/21 08:20:19;;;;;;;8.82;3.53;;;21.50;99.90;;;;;;5034338;28;20099;-55
2023/08/21 08:22:45;;;;;;;10.45;3.63;;;21.60;99.90;;;;;;5032721;28;20113;-56
2023/08/21 08:25:11;;;;;;;6.38;2.92;;;21.70;99.90;;;;;;5034738;28;20040;-55
2023/08/21 08:27:36;;;;;;;9.27;5.40;;;21.80;99.90;;;;;;5044077;28;20164;-52
2023/08/21 08:30:06;;;;;;;8.35;3.47;;;21.90;99.90;;;;;;5053484;28;20040;-55
2023/08/21 08:32:32;;;;;;;8.60;3.35;;;22.00;99.90;;;;;;5035679;28;20056;-54
2023/08/21 08:34:57;;;;;;;8.25;3.35;;;22.10;99.90;;;;;;5048087;28;20041;-54
2023/08/21 08:37:23;;;;;;;8.52;3.70;;;22.10;99.90;;;;;;5035591;28;20047;-56
2023/08/21 08:39:49;;;;;;;7.97;3.80;;;22.20;99.90;;;;;;5066792;28;20028;-53
2023/08/21 08:42:15;;;;;;;8.90;4.18;;;22.40;99.90;;;;;;5067091;28;20136;-55
2023/08/21 08:44:42;;;;;;;8.30;4.10;;;22.40;99.90;;;;;;5038748;28;20036;-53
2023/08/21 08:47:11;;;;;;;8.70;4.03;;;22.50;99.90;;;;;;5033731;28;20183;-54
2023/08/21 08:49:38;;;;;;;10.63;3.95;;;22.50;99.90;;;;;;5056009;28;20582;-57
2023/08/21 08:52:04;;;;;;;10.73;4.40;;;22.60;99.90;;;;;;5056456;28;20036;-54
2023/08/21 08:54:31;;;;;;;10.52;3.60;;;22.60;99.90;;;;;;5032047;28;20039;-56
2023/08/21 08:56:57;;;;;;;8.23;4.00;;;22.70;99.90;;;;;;5038061;28;20109;-56
2023/08/21 08:59:23;;;;;;;15.85;5.40;;;22.90;99.90;;;;;;5031469;28;20071;-55
2023/08/21 09:01:48;;;;;;;9.95;4.10;;;23.00;99.90;;;;;;5054805;28;20181;-55
2023/08/21 09:04:14;;;;;;;11.10;4.55;;;23.10;99.90;;;;;;5038973;28;20040;-53
2023/08/21 09:06:40;;;;;;;8.15;4.00;;;23.20;99.90;;;;;;5053898;28;20562;-53
2023/08/21 09:09:10;;;;;;;10.02;3.80;;;23.30;99.90;;;;;;5040381;28;20070;-54
2023/08/21 09:11:41;;;;;;;10.48;4.30;;;23.40;99.90;;;;;;5044604;28;20555;-55
2023/08/21 09:14:11;;;;;;;8.77;3.92;;;23.50;99.90;;;;;;5054301;28;20134;-53
2023/08/21 09:16:40;;;;;;;10.57;3.92;;;23.60;99.90;;;;;;5037286;28;20062;-54
2023/08/21 09:19:05;;;;;;;11.88;3.90;;;23.70;99.90;;;;;;5053888;28;20043;-54
2023/08/21 09:21:31;;;;;;;8.13;3.50;;;23.70;99.90;;;;;;5033397;28;20300;-56
2023/08/21 09:23:58;;;;;;;9.80;3.42;;;23.90;99.90;;;;;;5056717;28;20504;-56
2023/08/21 09:26:25;;;;;;;7.80;2.80;;;24.00;99.90;;;;;;5036683;28;20048;-54
2023/08/21 09:28:52;;;;;;;8.88;2.88;;;24.00;99.90;;;;;;5038574;28;20097;-54
2023/08/21 09:31:31;;;;;;;8.70;3.10;;;24.10;99.90;;;;;;5051748;28;20502;-54
2023/08/21 09:34:00;;;;;;;14.90;3.65;;;24.20;99.90;;;;;;5038858;28;20101;-56
2023/08/21 09:36:26;;;;;;;7.38;3.05;;;24.30;99.90;;;;;;5038103;28;20041;-54
2023/08/21 09:38:52;;;;;;;9.13;3.05;;;24.40;99.90;;;;;;5038668;28;20391;-54
2023/08/21 09:41:26;;;;;;;11.15;3.17;;;24.50;99.90;;;;;;5059195;28;21503;-55
2023/08/21 09:43:52;;;;;;;9.35;3.13;;;24.30;99.90;;;;;;5034444;28;20550;-55
2023/08/21 09:46:25;;;;;;;4.57;2.13;;;24.40;99.90;;;;;;5033154;28;20036;-54
2023/08/21 09:48:53;;;;;;;7.07;2.53;;;24.50;99.90;;;;;;5054094;28;20499;-54
2023/08/21 09:51:19;;;;;;;8.80;2.97;;;24.50;99.90;;;;;;5037027;28;20099;-54
2023/08/21 09:53:45;;;;;;;6.78;2.50;;;24.60;99.90;;;;;;5054102;28;20052;-54
2023/08/21 09:56:12;;;;;;;8.18;3.10;;;24.70;99.90;;;;;;5056330;28;20368;-54
2023/08/21 09:58:38;;;;;;;8.23;2.58;;;24.70;99.90;;;;;;5023883;28;20455;-52
2023/08/21 10:01:14;;;;;;;7.60;2.75;;;24.80;99.90;;;;;;5040479;28;20779;-54
2023/08/21 10:03:41;;;;;;;9.18;3.20;;;24.90;99.90;;;;;;5055242;28;20040;-54
2023/08/21 10:06:10;;;;;;;9.48;2.75;;;25.00;99.90;;;;;;5052470;28;20040;-54
2023/08/21 10:08:40;;;;;;;7.70;3.35;;;25.00;99.90;;;;;;5054119;28;20033;-52
2023/08/21 10:11:09;;;;;;;5.40;2.60;;;25.00;99.90;;;;;;5055782;28;20044;-52
2023/08/21 10:13:37;;;;;;;11.75;2.95;;;25.10;99.90;;;;;;5034004;28;20055;-53
2023/08/21 10:16:05;;;;;;;8.73;3.05;;;25.10;99.90;;;;;;5021932;28;20044;-54
2023/08/21 10:18:33;;;;;;;9.27;3.30;;;25.10;99.90;;;;;;5033800;28;20047;-53
2023/08/21 10:21:19;;;;;;;7.25;2.47;;;25.20;99.90;;;;;;5053332;28;20384;-53
2023/08/21 10:23:55;;;;;;;6.95;2.15;;;25.40;99.90;;;;;;5041546;28;20143;-53
2023/08/21 10:26:22;;;;;;;7.05;2.28;;;25.50;99.90;;;;;;5054347;28;20055;-52
2023/08/21 10:29:02;;;;;;;7.47;2.25;;;25.60;99.90;;;;;;5037938;28;20369;-52
2023/08/21 10:31:29;;;;;;;6.82;1.80;;;25.70;99.90;;;;;;5059669;28;21603;-53
2023/08/21 10:33:55;;;;;;;7.30;2.38;;;25.80;99.90;;;;;;5036221;28;20044;-53
2023/08/21 10:36:40;;;;;;;6.50;2.08;;;25.90;99.90;;;;;;5037254;28;20687;-51
2023/08/21 10:39:29;;;;;;;6.00;1.95;;;25.90;98.80;;;;;;5037942;28;20036;-53
2023/08/21 10:42:05;;;;;;;5.97;2.20;;;25.80;98.70;;;;;;5035826;28;20048;-53
2023/08/21 10:45:05;;;;;;;8.30;2.00;;;25.70;99.90;;;;;;5049297;28;20556;-53
2023/08/21 10:47:33;;;;;;;8.02;2.05;;;25.80;99.50;;;;;;5053059;28;20577;-54
2023/08/21 10:50:04;;;;;;;5.78;1.73;;;26.00;99.60;;;;;;5058320;28;20399;-55
2023/08/21 10:52:41;;;;;;;7.55;1.83;;;26.10;99.70;;;;;;5034284;28;20610;-55
2023/08/21 10:55:11;;;;;;;8.27;2.20;;;26.40;99.50;;;;;;5033927;28;20164;-55
2023/08/21 10:57:38;;;;;;;6.20;1.92;;;26.40;99.20;;;;;;5050832;28;20483;-55
2023/08/21 11:00:15;;;;;;;5.07;1.95;;;26.30;98.70;;;;;;5033770;28;20083;-54
2023/08/21 11:02:45;;;;;;;8.38;2.33;;;26.50;99.10;;;;;;5037696;28;20044;-54
2023/08/21 11:05:12;;;;;;;7.30;2.20;;;26.60;98.30;;;;;;5051610;28;20074;-50
2023/08/21 11:07:43;;;;;;;8.25;2.58;;;26.70;97.90;;;;;;5031276;28;20048;-55
2023/08/21 11:10:18;;;;;;;8.98;2.15;;;26.70;98.10;;;;;;5061757;22;20047;-54
2023/08/21 11:12:59;;;;;;;7.53;2.25;;;26.70;98.40;;;;;;5051063;28;20067;-56
2023/08/21 11:15:29;;;;;;;6.10;2.47;;;26.70;97.50;;;;;;5036427;28;20528;-53
2023/08/21 11:18:02;;;;;;;7.60;1.63;;;26.90;98.40;;;;;;5050436;28;20071;-55
2023/08/21 11:20:37;;;;;;;7.20;2.50;;;27.10;98.20;;;;;;5054451;28;20070;-56
2023/08/21 11:23:06;;;;;;;7.82;1.50;;;27.20;97.90;;;;;;5044312;28;20083;-54
2023/08/21 11:25:39;;;;;;;7.72;2.17;;;27.20;97.80;;;;;;5046461;28;20814;-54
2023/08/21 11:28:05;;;;;;;6.07;2.20;;;27.40;98.30;;;;;;5048404;28;20130;-55
2023/08/21 11:30:32;;;;;;;4.32;1.80;;;27.60;98.20;;;;;;5049408;28;20052;-55
2023/08/21 11:33:28;;;;;;;5.57;2.25;;;27.40;97.80;;;;;;5048966;28;20040;-52
2023/08/21 11:35:54;;;;;;;8.60;1.88;;;26.90;96.50;;;;;;5042726;28;20067;-53
2023/08/21 11:38:21;;;;;;;6.05;1.73;;;26.60;97.20;;;;;;5047486;28;20044;-54
2023/08/21 11:40:58;;;;;;;6.63;1.63;;;26.50;97.80;;;;;;5050662;28;22159;-56
2023/08/21 11:43:34;;;;;;;6.35;1.90;;;26.40;98.10;;;;;;5053058;28;20044;-53
2023/08/21 11:46:04;;;;;;;6.13;1.75;;;26.60;96.80;;;;;;5046842;28;20047;-54
2023/08/21 11:48:32;;;;;;;2.58;1.10;;;26.50;96.70;;;;;;5049329;28;20652;-54
2023/08/21 11:50:58;;;;;;;3.80;1.20;;;26.60;96.30;;;;;;5052244;28;20040;-52
2023/08/21 11:53:39;;;;;;;5.10;1.27;;;26.40;96.70;;;;;;5048147;28;20045;-55
2023/08/21 11:56:13;;;;;;;6.05;1.20;;;26.00;96.00;;;;;;5048447;28;20097;-53
2023/08/21 11:58:40;;;;;;;5.53;1.23;;;25.60;96.40;;;;;;5047771;28;20585;-54
2023/08/21 12:01:09;;;;;;;4.82;1.60;;;25.70;96.90;;;;;;5046688;28;20430;-54
2023/08/21 12:03:39;;;;;;;4.60;1.00;;;26.10;96.90;;;;;;5053140;28;20029;-53
2023/08/21 12:06:10;;;;;;;5.75;1.35;;;26.50;96.00;;;;;;5047670;28;20045;-53
2023/08/21 12:08:36;;;;;;;6.57;1.80;;;26.60;95.10;;;;;;5043210;28;20032;-51
2023/08/21 12:11:02;;;;;;;7.53;1.30;;;26.80;95.20;;;;;;5048045;28;20029;-56
2023/08/21 12:13:29;;;;;;;4.55;1.38;;;27.00;95.40;;;;;;5059859;28;20407;-53
2023/08/21 12:15:54;;;;;;;5.07;1.95;;;27.10;95.40;;;;;;5054145;28;20175;-52
2023/08/21 12:18:20;;;;;;;5.10;1.35;;;27.40;94.90;;;;;;5038051;28;20064;-54
2023/08/21 12:20:46;;;;;;;4.55;1.38;;;27.00;95.40;;;;;;5052268;28;20041;-54
2023/08/21 12:23:11;;;;;;;5.35;1.65;;;26.60;95.60;;;;;;5055771;28;20071;-54
2023/08/21 12:25:37;;;;;;;5.38;1.70;;;26.10;95.90;;;;;;5057129;28;20044;-54
2023/08/21 12:28:03;;;;;;;4.80;1.60;;;25.70;96.10;;;;;;5054952;28;20041;-56
2023/08/21 12:30:32;;;;;;;5.50;1.55;;;25.70;96.70;;;;;;5056053;28;20474;-57
2023/08/21 12:32:57;;;;;;;6.88;2.05;;;26.10;96.70;;;;;;5054546;28;20041;-56
2023/08/21 12:35:23;;;;;;;6.95;2.30;;;26.50;96.60;;;;;;5054726;28;20043;-56
2023/08/21 12:37:49;;;;;;;13.80;1.80;;;26.90;96.10;;;;;;5055519;28;20132;-56
2023/08/21 12:40:14;;;;;;;5.82;1.40;;;27.20;95.50;;;;;;5055492;28;20050;-55
2023/08/21 12:42:40;;;;;;;4.45;1.05;;;27.50;94.90;;;;;;5051307;28;20039;-57
2023/08/21 12:45:09;;;;;;;6.35;1.20;;;27.70;94.50;;;;;;5059930;28;20056;-56
2023/08/21 12:47:35;;;;;;;6.53;1.52;;;27.90;94.50;;;;;;5053908;28;20456;-55